Chris Hadfield Airport
CYZR : now visible

Airfield :











YOU CAN JOIN US ON...

 
LOGIN :

Register | Disclaimer

   EN    FR    IT 

 









Legend :    VFR   Marginal VFR   IFR   Intensive IFR   Very Intensive IFR
Visi :
Ceiling :
>= 8 km
>= 3000ft
5 to 8 km
1000 to 3000 ft
1500m to 5 km
500 to 1000 ft
800 to 1500m
200 to 500 ft
< 800m
< 200 ft
Symbols :   Thunderstorms  Fog  Heavy snow  Heavy precipitations  Wind > 20 kt






- Airport Elevation : 594 ft
- IATA code : YZR


CYZR - Chris Hadfield

CURRENT METAR :
  • 211610Z AUTO 27012G19KT 9SM OVC025 13/09 A3011 RMK SLP201

EXPIRED METARs :
  • 211600Z AUTO 27013G18KT 250V320 9SM OVC023 13/09 A3011 RMK SLP200
  • 211542Z AUTO 28011G18KT 9SM BKN023 OVC029 14/10 A3009 RMK SLP195
  • 211510Z AUTO 27010KT 9SM SCT016 OVC027 14/10 A3008 RMK SLP189
  • 211414Z AUTO 26008KT 9SM BKN020 OVC028 14/11 A3006 RMK SLP182
  • 211408Z AUTO 26009KT 220V310 9SM SCT020 OVC028 14/11 A3005 RMK SLP180
  • 211354Z AUTO 26010G19KT 9SM BKN022 OVC028 14/11 A3004 RMK SLP178

TAF TAF CYZR
Valid from the 21 at 14:00 until the 22 at 02:00 UTC


211338Z 2114/2202 27010G20KT P6SM BKN025
TEMPO 2114/2117 OVC020
FM211700 27012G22KT P6SM SCT025 SCT200
BECMG 2119/2121 28010KT RMK FCST BASED ON AUTO OBS. NXT FCST BY 212000Z
CZYZ FIR / North America



MET'MAP, your aeronautical weather chart ! - Copyright ORBIFLY December 2007 - Disclaimer

ORBIFLY MET'MAP TEAM :

Programming & Development : Alexandra Zaïnal
Concept & original design : Baudouin d'Aumeries
Assistance for programming : Marc-Olivier Méhu
Technical & hardware support : Manuel Goepfert

Contact : metmap@orbifly.com




SOURCES & CREDITS :

   NOAA       Earth
Advisory